Time;durP1;ratioP1;P1;durP2;ratioP2;P2;SDS_P1;SDS_P2;PMS_P1;PMS_P2;Temp;Humidity;BMP_temperature;BMP_pressure;BME280_temperature;BME280_humidity;BME280_pressure;Samples;Min_cycle;Max_cycle;Signal;HPM_P1;HPM_P2
2022/07/21 00:01:59;;;;;;;9.63;7.62;;;;;;;18.51;70.86;101653.83;1700858;82;21084;-91
2022/07/21 00:04:27;;;;;;;12.40;9.63;;;;;;;18.48;70.86;101652.47;1656091;84;21067;-91
2022/07/21 00:06:54;;;;;;;12.37;8.55;;;;;;;18.43;70.93;101645.34;1656121;84;21199;-91
2022/07/21 00:09:23;;;;;;;11.28;7.60;;;;;;;18.41;70.94;101651.10;1648847;84;21094;-91
2022/07/21 00:11:53;;;;;;;12.50;7.22;;;;;;;18.41;70.99;101661.77;1653892;84;21138;-91
2022/07/21 00:14:19;;;;;;;10.60;7.55;;;;;;;18.34;71.03;101662.59;1644955;84;21086;-90
2022/07/21 00:16:45;;;;;;;10.80;7.55;;;;;;;18.31;71.20;101671.00;1653902;84;21817;-91
2022/07/21 00:19:12;;;;;;;9.63;6.53;;;;;;;18.25;71.30;101665.19;1653623;84;21173;-91
2022/07/21 00:21:39;;;;;;;9.03;7.45;;;;;;;18.21;71.36;101671.38;1658160;84;21513;-91
2022/07/21 00:24:09;;;;;;;10.60;7.62;;;;;;;18.16;71.45;101663.33;1661048;84;21394;-90
2022/07/21 00:26:35;;;;;;;12.98;8.83;;;;;;;18.14;71.56;101665.09;1653670;84;21102;-91
2022/07/21 00:29:02;;;;;;;11.68;7.70;;;;;;;18.11;71.63;101662.84;1653725;84;21734;-90
2022/07/21 00:31:29;;;;;;;11.65;7.53;;;;;;;18.09;71.70;101664.59;1653633;84;21205;-91
2022/07/21 00:33:58;;;;;;;9.93;7.15;;;;;;;18.05;71.77;101664.56;1653397;84;21095;-91
2022/07/21 00:36:27;;;;;;;13.88;8.30;;;;;;;18.01;71.86;101659.20;1661139;84;21089;-92
2022/07/21 00:38:54;;;;;;;9.85;7.30;;;;;;;17.98;71.94;101665.41;1690818;83;21110;-90
2022/07/21 00:41:24;;;;;;;11.73;7.10;;;;;;;17.94;72.08;101666.68;1687281;83;21782;-90
2022/07/21 00:43:49;;;;;;;10.50;7.28;;;;;;;17.93;72.22;101663.13;1692390;83;21097;-90
2022/07/21 00:46:19;;;;;;;12.37;7.75;;;;;;;17.91;72.34;101663.56;1687309;83;21105;-90
2022/07/21 00:48:46;;;;;;;10.65;7.60;;;;;;;17.90;72.40;101660.44;1685051;83;21547;-89
2022/07/21 00:51:12;;;;;;;12.33;7.28;;;;;;;17.90;72.46;101669.75;1653233;84;21579;-89
2022/07/21 00:53:39;;;;;;;10.20;7.92;;;;;;;17.88;72.56;101668.84;1661990;84;21748;-90
2022/07/21 00:56:06;;;;;;;12.30;8.18;;;;;;;17.88;72.62;101671.52;1706882;83;21642;-91
2022/07/21 00:58:39;;;;;;;11.20;8.00;;;;;;;17.86;72.68;101678.59;1697807;83;21114;-91
2022/07/21 01:01:06;;;;;;;11.93;9.18;;;;;;;17.85;72.75;101678.16;1644418;86;21254;-91
2022/07/21 01:03:37;;;;;;;10.75;8.00;;;;;;;17.82;72.76;101674.09;1683947;83;21123;-91
2022/07/21 01:06:09;;;;;;;9.38;7.80;;;;;;;17.80;72.84;101668.75;1684659;83;21090;-90
2022/07/21 01:08:36;;;;;;;11.08;7.28;;;;;;;17.77;72.76;101669.15;1652972;85;21109;-91
2022/07/21 01:11:03;;;;;;;10.95;7.40;;;;;;;17.74;72.81;101667.81;1652924;84;21089;-91
2022/07/21 01:13:32;;;;;;;12.68;8.23;;;;;;;17.68;72.81;101672.19;1689594;83;21050;-91
2022/07/21 01:16:01;;;;;;;10.43;6.75;;;;;;;17.65;72.87;101673.92;1689270;83;21090;-91
2022/07/21 01:18:28;;;;;;;12.05;7.95;;;;;;;17.62;72.97;101681.86;1691873;83;21785;-91
2022/07/21 01:21:00;;;;;;;14.28;7.47;;;;;;;17.49;72.99;101661.78;1644131;84;21149;-90
2022/07/21 01:23:25;;;;;;;9.63;7.60;;;;;;;17.55;73.07;101670.69;1707109;83;22190;-90
2022/07/21 01:25:53;;;;;;;7.80;6.67;;;;;;;17.53;73.17;101668.45;1707316;83;21500;-90
2022/07/21 01:28:20;;;;;;;11.28;7.47;;;;;;;17.50;73.26;101667.98;1707347;83;21101;-91
2022/07/21 01:30:47;;;;;;;13.53;8.23;;;;;;;17.49;73.34;101663.52;1706846;83;22477;-91
2022/07/21 01:33:14;;;;;;;9.45;7.45;;;;;;;17.48;73.47;101666.63;1703227;82;21078;-91
2022/07/21 01:35:41;;;;;;;9.98;7.35;;;;;;;17.48;73.52;101663.97;1681689;84;21073;-91
2022/07/21 01:41:28;;;;;;;13.13;7.37;;;;;;;17.48;73.58;101661.76;1697571;83;21126;-90
2022/07/21 01:43:22;;;;;;;9.33;7.35;;;;;;;17.48;73.63;101655.10;1647647;84;22028;-90
2022/07/21 01:45:49;;;;;;;8.10;7.20;;;;;;;17.46;73.67;101653.75;1709282;83;21284;-90
2022/07/21 01:48:17;;;;;;;10.30;7.47;;;;;;;17.44;73.60;101645.30;1697343;83;21078;-90
2022/07/21 01:50:44;;;;;;;10.63;7.37;;;;;;;17.40;73.59;101649.70;1699710;83;21461;-89
2022/07/21 01:53:11;;;;;;;11.45;7.92;;;;;;;17.36;73.61;101646.55;1695600;83;21628;-90
2022/07/21 01:55:39;;;;;;;12.28;7.87;;;;;;;17.35;73.73;101651.85;1681726;84;21060;-91
2022/07/21 01:58:15;;;;;;;14.68;7.55;;;;;;;17.32;73.79;101658.02;1674281;84;21101;-91
2022/07/21 02:00:40;;;;;;;11.55;7.47;;;;;;;17.32;73.92;101669.10;1678437;83;21078;-91
2022/07/21 02:03:10;;;;;;;15.28;8.60;;;;;;;17.28;73.95;101663.73;1663860;84;21238;-90
2022/07/21 02:05:36;;;;;;;13.58;7.62;;;;;;;17.26;74.04;101662.83;1664166;84;21141;-90
2022/07/21 02:08:03;;;;;;;13.83;7.72;;;;;;;17.25;74.12;101663.72;1654950;84;21573;-90
2022/07/21 02:10:30;;;;;;;9.98;7.53;;;;;;;17.24;74.19;101661.03;1655730;84;21162;-90
2022/07/21 02:13:02;;;;;;;15.18;7.47;;;;;;;17.22;74.24;101659.67;1653506;84;21132;-90
2022/07/21 02:15:29;;;;;;;19.02;7.53;;;;;;;17.23;74.35;101662.80;1701072;82;21067;-89
2022/07/21 02:17:58;;;;;;;15.68;7.70;;;;;;;17.23;74.47;101654.83;1680822;83;21061;-89
2022/07/21 02:20:25;;;;;;;12.35;7.53;;;;;;;17.22;74.47;101651.69;1672280;84;21741;-90
2022/07/21 02:22:57;;;;;;;10.82;7.08;;;;;;;17.23;74.50;101652.58;1685963;84;21053;-90
2022/07/21 02:25:25;;;;;;;17.50;7.37;;;;;;;17.23;74.53;101650.83;1698678;83;21676;-91
2022/07/21 02:27:52;;;;;;;12.53;7.42;;;;;;;17.23;74.63;101651.25;1681254;83;22084;-89
2022/07/21 02:30:19;;;;;;;9.28;7.40;;;;;;;17.24;74.69;101657.92;1680102;84;21415;-90
2022/07/21 02:32:45;;;;;;;9.25;7.28;;;;;;;17.23;74.71;101660.56;1679215;81;21681;-91
2022/07/21 02:35:13;;;;;;;10.82;7.50;;;;;;;17.24;74.84;101665.02;1699299;83;21081;-90
2022/07/21 02:37:39;;;;;;;12.23;7.47;;;;;;;17.23;74.89;101662.80;1681688;83;21533;-90
2022/07/21 02:40:07;;;;;;;9.45;7.10;;;;;;;17.24;75.02;101655.27;1644162;85;21098;-90
2022/07/21 02:42:34;;;;;;;10.13;7.78;;;;;;;17.26;75.12;101650.84;1658130;84;21566;-90
2022/07/21 02:45:01;;;;;;;10.25;7.33;;;;;;;17.28;75.18;101651.76;1646128;85;21756;-91
2022/07/21 02:47:28;;;;;;;14.43;6.97;;;;;;;17.31;75.10;101655.36;1674859;83;22111;-90
2022/07/21 02:49:54;;;;;;;14.05;7.53;;;;;;;17.32;75.03;101651.80;1680583;83;21152;-91
2022/07/21 02:52:21;;;;;;;16.27;7.00;;;;;;;17.33;75.00;101661.14;1674844;83;21062;-90
2022/07/21 02:54:48;;;;;;;9.88;6.80;;;;;;;17.34;75.01;101652.71;1700617;82;21149;-90
2022/07/21 02:57:17;;;;;;;9.90;6.83;;;;;;;17.35;75.02;101660.72;1676872;83;21058;-90
2022/07/21 02:59:48;;;;;;;8.80;7.05;;;;;;;17.38;74.96;101658.52;1676193;83;21150;-90
2022/07/21 03:02:14;;;;;;;9.70;7.40;;;;;;;17.40;74.91;101659.02;1682611;83;21114;-91
2022/07/21 03:04:41;;;;;;;10.75;7.50;;;;;;;17.43;74.87;101655.03;1686444;83;21094;-89
2022/07/21 03:07:07;;;;;;;14.73;7.42;;;;;;;17.46;74.85;101655.53;1677311;83;21068;-91
2022/07/21 03:09:37;;;;;;;14.05;8.38;;;;;;;17.50;74.78;101657.34;1696213;83;21545;-90
2022/07/21 03:12:04;;;;;;;13.40;8.05;;;;;;;17.56;74.70;101657.84;1708200;82;21608;-90
2022/07/21 03:14:33;;;;;;;10.15;8.13;;;;;;;17.60;74.61;101647.67;1652670;84;21150;-91
2022/07/21 03:17:02;;;;;;;12.23;7.60;;;;;;;17.63;74.51;101650.38;1674952;83;21561;-90
2022/07/21 03:19:28;;;;;;;9.15;6.55;;;;;;;17.68;74.45;101652.62;1675075;83;22356;-90
2022/07/21 03:21:55;;;;;;;10.63;6.78;;;;;;;17.73;74.31;101654.03;1675193;83;21740;-91
2022/07/21 03:24:22;;;;;;;12.85;7.80;;;;;;;17.79;74.37;101647.42;1675284;83;21054;-90
2022/07/21 03:26:49;;;;;;;11.20;7.50;;;;;;;17.87;74.34;101647.11;1675485;83;21086;-91
2022/07/21 03:29:16;;;;;;;12.68;7.25;;;;;;;17.96;74.31;101647.19;1675103;83;21098;-90
2022/07/21 03:31:43;;;;;;;11.63;7.70;;;;;;;18.07;74.25;101643.27;1675469;83;21105;-90
2022/07/21 03:34:11;;;;;;;15.50;9.60;;;;;;;18.18;74.08;101632.70;1653346;84;21054;-90
2022/07/21 03:36:39;;;;;;;14.43;7.33;;;;;;;18.31;74.05;101639.91;1674858;84;21074;-89
2022/07/21 03:39:05;;;;;;;10.23;6.80;;;;;;;18.45;73.90;101638.23;1674757;84;21047;-90
2022/07/21 03:41:32;;;;;;;9.88;7.03;;;;;;;18.62;73.70;101637.46;1670544;84;21109;-89
2022/07/21 03:44:01;;;;;;;10.30;7.28;;;;;;;18.81;73.65;101636.70;1633874;85;21106;-90
2022/07/21 03:46:29;;;;;;;8.00;6.42;;;;;;;19.11;73.68;101639.52;1627150;85;21101;-90
2022/07/21 03:48:56;;;;;;;12.20;6.55;;;;;;;19.47;73.48;101641.40;1626550;86;21393;-89
2022/07/21 03:51:29;;;;;;;12.03;6.80;;;;;;;20.17;74.12;101641.05;1628188;86;21071;-90
2022/07/21 03:53:58;;;;;;;13.20;6.55;;;;;;;21.19;73.66;101644.41;1625599;86;21146;-90
2022/07/21 03:56:24;;;;;;;8.10;5.92;;;;;;;22.17;72.49;101645.98;1625631;86;21148;-91
2022/07/21 03:58:51;;;;;;;13.60;6.10;;;;;;;23.08;71.06;101647.32;1598460;88;21760;-90
2022/07/21 04:01:20;;;;;;;10.15;6.10;;;;;;;23.90;69.93;101648.89;1623067;86;21029;-90
2022/07/21 04:03:50;;;;;;;11.97;5.70;;;;;;;24.74;68.53;101648.76;1629246;86;21614;-90
2022/07/21 04:06:15;;;;;;;9.60;6.20;;;;;;;25.55;67.00;101652.89;1632770;85;21547;-90
2022/07/21 04:08:42;;;;;;;7.28;5.17;;;;;;;26.25;65.37;101652.59;1615998;86;21041;-86
2022/07/21 04:11:09;;;;;;;9.18;5.97;;;;;;;26.85;63.88;101651.86;1643952;85;22515;-86
2022/07/21 04:13:36;;;;;;;9.28;6.42;;;;;;;27.43;62.77;101644.33;1613198;87;21278;-86
2022/07/21 04:16:10;;;;;;;8.15;6.15;;;;;;;28.07;61.59;101640.89;1615555;86;21156;-87
2022/07/21 04:18:40;;;;;;;11.12;6.37;;;;;;;28.85;60.54;101637.27;1611137;87;21168;-87
2022/07/21 04:21:07;;;;;;;10.43;6.60;;;;;;;29.58;58.94;101635.37;1687476;83;21074;-91
2022/07/21 04:23:34;;;;;;;7.97;6.55;;;;;;;30.22;57.66;101641.30;1645261;85;21739;-91
2022/07/21 04:26:01;;;;;;;8.83;6.62;;;;;;;30.79;56.03;101634.72;1634460;85;21142;-91
2022/07/21 04:28:27;;;;;;;12.10;6.90;;;;;;;31.29;54.81;101635.16;1642227;85;21126;-92
2022/07/21 04:30:54;;;;;;;12.13;6.53;;;;;;;31.83;53.52;101637.51;1613604;86;21109;-91
2022/07/21 04:33:21;;;;;;;10.00;6.17;;;;;;;32.26;52.68;101639.91;1618424;85;21067;-91
2022/07/21 04:35:48;;;;;;;11.00;6.72;;;;;;;32.86;51.61;101641.70;1671230;84;21782;-91
2022/07/21 04:38:15;;;;;;;10.08;6.78;;;;;;;33.32;50.20;101645.13;1653950;85;21062;-91
2022/07/21 04:40:42;;;;;;;11.35;6.83;;;;;;;33.72;49.14;101640.13;1671687;84;21086;-92
2022/07/21 04:43:08;;;;;;;7.12;6.10;;;;;;;34.20;48.09;101640.95;1671990;84;21149;-91
2022/07/21 04:45:35;;;;;;;6.78;6.03;;;;;;;34.68;47.25;101640.76;1672095;84;21081;-91
2022/07/21 04:48:03;;;;;;;7.70;6.00;;;;;;;35.16;46.31;101634.50;1671974;84;21747;-91
2022/07/21 04:50:32;;;;;;;6.55;5.78;;;;;;;35.67;45.13;101636.66;1673730;84;21628;-91
2022/07/21 04:53:02;;;;;;;8.83;6.80;;;;;;;36.07;44.01;101631.23;1670525;84;21133;-92
2022/07/21 04:55:29;;;;;;;7.17;5.95;;;;;;;36.48;43.18;101635.72;1675040;85;21581;-92
2022/07/21 04:57:59;;;;;;;9.88;5.58;;;;;;;36.92;42.37;101637.19;1670568;84;21093;-92
2022/07/21 05:00:28;;;;;;;9.95;5.80;;;;;;;37.41;41.52;101629.06;1679249;84;21091;-92
2022/07/21 05:02:57;;;;;;;11.00;5.90;;;;;;;37.79;40.35;101625.34;1684991;83;22297;-91
2022/07/21 05:05:24;;;;;;;16.52;6.35;;;;;;;38.05;39.54;101624.66;1683572;83;21107;-92
2022/07/21 05:07:54;;;;;;;10.30;6.03;;;;;;;38.49;39.12;101626.70;1674863;84;21099;-92
2022/07/21 05:10:21;;;;;;;8.55;6.30;;;;;;;38.79;38.19;101630.77;1678775;83;21113;-91
2022/07/21 05:12:47;;;;;;;11.03;5.83;;;;;;;39.14;37.38;101633.93;1677498;83;21937;-92
2022/07/21 05:15:17;;;;;;;10.48;6.33;;;;;;;39.52;37.01;101645.03;1676311;83;21412;-91
2022/07/21 05:17:44;;;;;;;8.20;5.70;;;;;;;39.95;36.38;101638.65;1676711;83;21517;-92
2022/07/21 05:20:11;;;;;;;7.80;5.62;;;;;;;40.38;35.51;101639.59;1677567;83;21099;-92
2022/07/21 05:22:38;;;;;;;8.55;5.67;;;;;;;40.54;34.68;101636.34;1675163;83;21060;-93
2022/07/21 05:25:05;;;;;;;10.95;5.62;;;;;;;40.63;34.29;101634.66;1675334;83;22231;-92
2022/07/21 05:27:32;;;;;;;10.72;5.42;;;;;;;40.91;33.79;101637.22;1674651;83;21167;-91
2022/07/21 05:29:59;;;;;;;6.75;5.58;;;;;;;41.13;33.27;101635.63;1674745;83;21084;-92
2022/07/21 05:32:26;;;;;;;7.20;5.00;;;;;;;41.31;32.71;101636.36;1674719;83;21131;-92
2022/07/21 05:34:53;;;;;;;6.75;4.62;;;;;;;41.40;31.86;101636.89;1680226;83;21118;-92
2022/07/21 05:37:20;;;;;;;8.10;5.35;;;;;;;41.34;31.69;101635.58;1707360;83;21771;-92
2022/07/21 05:39:47;;;;;;;10.68;4.78;;;;;;;41.41;31.40;101628.98;1699928;83;20994;-92
2022/07/21 05:42:13;;;;;;;8.50;4.70;;;;;;;41.64;31.13;101630.14;1682532;83;21078;-92
2022/07/21 05:44:40;;;;;;;8.43;5.03;;;;;;;41.67;30.61;101620.16;1653713;84;21168;-91
2022/07/21 05:47:07;;;;;;;8.95;5.45;;;;;;;40.55;29.77;101614.64;1652362;84;21104;-92
2022/07/21 05:49:34;;;;;;;5.45;4.90;;;;;;;38.86;30.12;101610.52;1658802;84;21793;-91
2022/07/21 05:52:00;;;;;;;8.15;4.62;;;;;;;37.14;30.63;101613.67;1666645;84;21122;-91
2022/07/21 05:54:27;;;;;;;8.80;5.37;;;;;;;35.53;31.64;101616.16;1686517;83;21511;-92
2022/07/21 05:56:54;;;;;;;7.08;4.58;;;;;;;34.35;32.61;101616.36;1688297;84;21323;-91
2022/07/21 05:59:21;;;;;;;10.58;5.42;;;;;;;33.33;33.57;101610.04;1664422;83;21079;-92
2022/07/21 06:01:47;;;;;;;6.67;5.20;;;;;;;32.56;34.41;101608.79;1651517;84;21762;-91
2022/07/21 06:04:14;;;;;;;8.30;4.80;;;;;;;31.82;35.23;101611.75;1678239;83;21061;-91
2022/07/21 06:06:41;;;;;;;11.63;5.47;;;;;;;31.23;35.96;101607.77;1659913;85;21109;-91
2022/07/21 06:09:07;;;;;;;10.20;5.37;;;;;;;30.65;36.67;101602.33;1704842;83;21116;-92
2022/07/21 06:11:34;;;;;;;6.08;4.83;;;;;;;30.21;37.33;101604.70;1707158;83;21057;-91
2022/07/21 06:14:01;;;;;;;9.25;4.97;;;;;;;29.78;37.95;101596.56;1689117;83;21564;-91
2022/07/21 06:16:27;;;;;;;6.83;5.25;;;;;;;29.50;38.61;101595.92;1697883;83;21125;-91
2022/07/21 06:18:54;;;;;;;7.45;5.50;;;;;;;29.24;39.09;101591.98;1687657;83;21122;-91
2022/07/21 06:21:21;;;;;;;6.40;4.92;;;;;;;28.99;39.69;101587.06;1662954;84;21167;-91
2022/07/21 06:23:48;;;;;;;6.12;4.90;;;;;;;28.82;40.07;101584.53;1686178;83;22059;-91
2022/07/21 06:26:14;;;;;;;8.98;4.97;;;;;;;28.59;40.48;101584.05;1688695;83;21748;-91
2022/07/21 06:28:41;;;;;;;7.55;5.42;;;;;;;28.38;40.86;101587.05;1682319;83;21131;-91
2022/07/21 06:31:08;;;;;;;10.53;5.87;;;;;;;28.22;41.28;101588.05;1683545;83;21076;-91
2022/07/21 06:33:35;;;;;;;8.28;4.70;;;;;;;28.11;41.74;101583.01;1693732;83;21205;-91
2022/07/21 06:36:01;;;;;;;9.35;4.53;;;;;;;28.04;41.97;101587.34;1662250;84;21578;-91
2022/07/21 06:38:28;;;;;;;10.40;5.03;;;;;;;27.97;42.23;101589.39;1657250;85;21873;-91
2022/07/21 06:40:55;;;;;;;6.72;4.40;;;;;;;27.92;42.48;101590.01;1670619;85;21079;-91
2022/07/21 06:43:22;;;;;;;8.63;5.15;;;;;;;27.83;42.63;101578.11;1659212;84;21077;-91
2022/07/21 06:45:48;;;;;;;5.85;4.78;;;;;;;27.70;42.80;101581.69;1672300;85;21167;-91
2022/07/21 06:48:15;;;;;;;10.78;5.08;;;;;;;27.65;43.18;101580.52;1671096;84;21095;-91
2022/07/21 06:50:42;;;;;;;6.33;4.78;;;;;;;27.62;43.25;101583.78;1671876;85;22078;-90
2022/07/21 06:53:09;;;;;;;7.60;4.97;;;;;;;27.60;43.40;101586.53;1672773;84;22339;-91
2022/07/21 06:55:36;;;;;;;9.03;5.50;;;;;;;27.61;43.72;101579.30;1672678;84;21649;-90
2022/07/21 06:58:16;;;;;;;5.70;5.00;;;;;;;27.63;43.89;101575.63;1670682;84;21641;-90
2022/07/21 07:00:44;;;;;;;7.08;4.80;;;;;;;27.63;43.80;101570.22;1672803;84;21155;-91
2022/07/21 07:03:11;;;;;;;10.28;5.10;;;;;;;27.65;43.94;101566.98;1667125;84;21743;-91
2022/07/21 07:05:38;;;;;;;7.22;4.97;;;;;;;27.67;44.23;101573.23;1657653;85;21431;-91
2022/07/21 07:08:07;;;;;;;8.40;5.30;;;;;;;27.72;44.34;101572.61;1688729;84;21538;-91
2022/07/21 07:10:34;;;;;;;9.45;5.17;;;;;;;27.78;44.40;101580.08;1671982;84;21125;-91
2022/07/21 07:13:01;;;;;;;7.25;5.12;;;;;;;27.82;44.61;101575.88;1672628;84;21667;-91
2022/07/21 07:15:28;;;;;;;6.65;4.90;;;;;;;27.85;44.59;101565.41;1671381;85;22427;-91
2022/07/21 07:17:55;;;;;;;9.83;5.25;;;;;;;27.89;44.66;101568.02;1672535;85;21072;-92
2022/07/21 07:20:22;;;;;;;9.13;5.15;;;;;;;27.95;44.68;101564.66;1671658;84;21103;-91
2022/07/21 07:22:49;;;;;;;8.75;5.15;;;;;;;27.98;44.63;101560.02;1667238;85;21091;-91
2022/07/21 07:25:17;;;;;;;7.00;4.90;;;;;;;28.01;44.60;101562.63;1696412;84;21540;-91
2022/07/21 07:27:45;;;;;;;7.08;5.03;;;;;;;28.04;44.53;101565.69;1659982;85;21651;-90
2022/07/21 07:30:12;;;;;;;5.28;4.78;;;;;;;28.04;44.36;101563.89;1670349;85;20993;-92
2022/07/21 07:32:39;;;;;;;7.83;4.28;;;;;;;28.06;44.30;101566.52;1669704;85;21054;-92
2022/07/21 07:35:08;;;;;;;9.08;4.83;;;;;;;28.08;44.49;101565.98;1669037;84;21112;-91
2022/07/21 07:37:37;;;;;;;6.90;4.62;;;;;;;28.11;44.45;101576.72;1700444;82;21141;-91
2022/07/21 07:40:09;;;;;;;9.65;4.28;;;;;;;28.15;44.51;101574.31;1681618;84;22562;-91
2022/07/21 07:42:37;;;;;;;9.58;6.22;;;;;;;28.18;44.54;101576.92;1681925;83;21095;-91
2022/07/21 07:45:05;;;;;;;9.53;6.92;;;;;;;28.21;44.56;101570.50;1670663;84;21083;-91
2022/07/21 07:47:31;;;;;;;6.90;4.65;;;;;;;28.25;44.53;101572.19;1683520;84;21049;-91
2022/07/21 07:49:58;;;;;;;10.18;5.22;;;;;;;28.30;44.47;101572.88;1683256;84;21087;-91
2022/07/21 07:52:25;;;;;;;6.67;4.28;;;;;;;28.32;44.46;101568.30;1683342;85;21750;-92
2022/07/21 07:54:52;;;;;;;4.92;4.22;;;;;;;28.35;44.32;101572.25;1682878;84;21061;-90
2022/07/21 07:57:19;;;;;;;7.03;4.83;;;;;;;28.40;44.37;101571.63;1682831;85;21087;-91
2022/07/21 07:59:48;;;;;;;7.25;4.60;;;;;;;28.42;44.01;101568.39;1683544;84;21696;-92
2022/07/21 08:02:21;;;;;;;7.58;4.65;;;;;;;28.39;44.02;101575.26;1608929;85;36502;-92
2022/07/21 08:04:48;;;;;;;10.40;4.90;;;;;;;28.44;44.04;101570.56;1643826;84;21753;-91
2022/07/21 08:07:17;;;;;;;6.58;5.28;;;;;;;28.49;44.06;101565.87;1682613;83;21086;-91
2022/07/21 08:09:44;;;;;;;5.58;4.35;;;;;;;28.54;44.11;101571.62;1679568;83;21095;-92
2022/07/21 08:12:11;;;;;;;5.25;4.33;;;;;;;28.60;44.08;101558.70;1692610;82;21077;-91
2022/07/21 08:14:38;;;;;;;6.10;4.58;;;;;;;28.65;43.90;101572.97;1709770;83;22027;-91
2022/07/21 08:17:05;;;;;;;12.20;9.28;;;;;;;28.71;43.98;101573.22;1709491;83;21759;-92
2022/07/21 08:19:35;;;;;;;5.97;4.85;;;;;;;28.76;43.89;101578.00;1709227;83;21567;-92
2022/07/21 08:22:01;;;;;;;7.08;4.70;;;;;;;28.82;43.78;101568.27;1689234;83;21134;-91
2022/07/21 08:24:28;;;;;;;6.25;5.28;;;;;;;28.88;43.66;101565.31;1663924;84;21079;-91
2022/07/21 08:26:54;;;;;;;5.78;4.60;;;;;;;28.95;43.61;101562.39;1700858;82;22173;-91
2022/07/21 08:29:21;;;;;;;7.60;4.50;;;;;;;29.00;43.46;101559.91;1695717;83;21727;-90
2022/07/21 08:31:48;;;;;;;7.87;4.72;;;;;;;29.05;43.34;101560.58;1670833;84;21307;-91
2022/07/21 08:34:15;;;;;;;6.08;4.70;;;;;;;29.10;43.34;101563.61;1666200;84;21086;-91
2022/07/21 08:36:42;;;;;;;5.20;4.15;;;;;;;29.16;43.38;101562.03;1662451;84;21084;-89
2022/07/21 08:39:08;;;;;;;8.55;4.75;;;;;;;29.22;43.46;101567.20;1658557;84;21105;-90
2022/07/21 08:41:37;;;;;;;6.00;4.78;;;;;;;29.29;43.34;101559.23;1657097;84;22365;-91
2022/07/21 08:44:04;;;;;;;8.80;4.87;;;;;;;29.33;43.06;101561.36;1668593;84;21013;-91
2022/07/21 08:46:31;;;;;;;9.00;4.85;;;;;;;29.37;43.07;101562.99;1672606;85;21106;-90
2022/07/21 08:48:58;;;;;;;5.28;4.70;;;;;;;29.41;43.03;101556.04;1652957;85;21518;-91
2022/07/21 08:51:26;;;;;;;6.55;4.50;;;;;;;29.46;42.97;101539.56;1672651;84;21132;-91
2022/07/21 08:53:55;;;;;;;5.90;4.70;;;;;;;29.50;42.73;101537.61;1670269;84;22528;-89
2022/07/21 08:56:25;;;;;;;10.23;5.35;;;;;;;29.49;42.67;101522.27;1671532;85;21142;-90
2022/07/21 08:58:52;;;;;;;8.20;4.65;;;;;;;29.61;42.63;101529.89;1671871;84;21534;-89
2022/07/21 09:01:18;;;;;;;5.80;4.62;;;;;;;29.68;42.57;101519.68;1670334;84;21089;-89
2022/07/21 09:03:45;;;;;;;4.95;4.53;;;;;;;29.74;42.38;101518.08;1671774;84;21119;-90
2022/07/21 09:06:17;;;;;;;5.67;4.53;;;;;;;29.78;42.51;101521.94;1652452;85;22141;-90
2022/07/21 09:08:48;;;;;;;11.70;4.95;;;;;;;29.84;42.48;101516.27;1671719;84;21167;-90
2022/07/21 09:11:30;;;;;;;11.48;4.60;;;;;;;29.90;42.45;101523.27;1671235;85;21382;-90
2022/07/21 09:14:16;;;;;;;8.10;4.40;;;;;;;29.95;42.46;101526.62;1668546;84;21067;-91
2022/07/21 09:16:58;;;;;;;4.20;3.80;;;;;;;30.01;42.21;101528.19;1672395;84;21115;-92
2022/07/21 09:19:44;;;;;;;6.58;4.53;;;;;;;30.06;42.26;101527.52;1654325;85;23180;-91
2022/07/21 09:22:12;;;;;;;4.95;4.37;;;;;;;30.13;42.06;101521.36;1651192;85;21116;-92
2022/07/21 09:24:39;;;;;;;;;;;;;;;30.18;41.94;101520.20;1671486;84;21112;-92
2022/07/21 09:27:16;;;;;;;7.97;4.45;;;;;;;30.26;41.88;101513.52;1670919;84;20619;-91
2022/07/21 09:29:59;;;;;;;4.42;4.03;;;;;;;30.29;41.95;101499.32;1669235;85;21106;-91
2022/07/21 09:32:37;;;;;;;8.45;4.45;;;;;;;30.36;41.85;101492.69;1669539;85;22862;-91
2022/07/21 09:35:09;;;;;;;13.22;10.28;;;;;;;30.42;41.78;101487.45;1672173;85;21071;-90
2022/07/21 09:37:36;;;;;;;5.60;4.85;;;;;;;30.48;41.79;101480.36;1669729;85;21072;-90
2022/07/21 09:40:10;;;;;;;5.03;4.60;;;;;;;30.54;41.67;101488.70;1669665;85;21796;-90
2022/07/21 09:42:39;;;;;;;5.75;4.10;;;;;;;30.57;41.41;101484.49;1670738;85;21155;-91
2022/07/21 09:45:12;;;;;;;8.45;7.28;;;;;;;30.60;41.35;101485.72;1670003;85;21095;-90
2022/07/21 09:47:40;;;;;;;5.10;4.47;;;;;;;30.64;41.19;101482.38;1666100;85;21485;-91
2022/07/21 09:50:08;;;;;;;8.63;4.30;;;;;;;30.67;41.21;101482.21;1667723;85;21534;-91
2022/07/21 09:52:37;;;;;;;5.17;4.45;;;;;;;30.69;40.97;101483.02;1670320;85;21610;-90
2022/07/21 09:55:08;;;;;;;12.65;4.55;;;;;;;30.70;40.99;101476.16;1669429;84;21351;-90
2022/07/21 09:57:35;;;;;;;5.97;4.37;;;;;;;30.75;41.03;101480.03;1670068;84;21809;-90
2022/07/21 10:00:04;;;;;;;5.92;4.12;;;;;;;30.81;40.92;101477.01;1670561;85;21080;-90
2022/07/21 10:02:32;;;;;;;6.40;4.25;;;;;;;30.89;40.90;101470.70;1670234;84;21118;-90
2022/07/21 10:05:14;;;;;;;7.75;4.42;;;;;;;30.93;40.56;101468.30;1670078;85;21657;-90
2022/07/21 10:07:47;;;;;;;7.22;4.28;;;;;;;30.97;40.58;101464.47;1695616;82;21099;-90
2022/07/21 10:10:14;;;;;;;6.20;3.98;;;;;;;31.05;40.45;101464.58;1669646;84;21768;-90
2022/07/21 10:12:41;;;;;;;8.35;4.28;;;;;;;31.09;40.07;101462.97;1669432;84;21088;-90
2022/07/21 10:15:09;;;;;;;6.00;4.30;;;;;;;31.15;40.13;101458.58;1670332;85;21100;-90
2022/07/21 10:17:35;;;;;;;10.53;4.03;;;;;;;31.28;40.03;101460.20;1671942;85;21029;-91
2022/07/21 10:20:27;;;;;;;5.30;4.08;;;;;;;31.46;39.88;101463.83;1669718;84;21099;-91
2022/07/21 10:23:15;;;;;;;11.10;4.37;;;;;;;31.66;39.55;101471.47;1669390;85;21769;-91
2022/07/21 10:25:43;;;;;;;7.83;3.95;;;;;;;31.88;39.52;101469.37;1665634;84;21146;-91
2022/07/21 10:28:23;;;;;;;7.70;3.80;;;;;;;32.10;39.39;101470.50;1671015;84;21144;-91
2022/07/21 10:30:54;;;;;;;9.55;4.92;;;;;;;32.29;39.11;101468.13;1667941;85;21165;-91
2022/07/21 10:33:45;;;;;;;7.55;4.10;;;;;;;32.44;38.87;101464.55;1664276;84;21122;-91
2022/07/21 10:36:33;;;;;;;9.43;6.45;;;;;;;32.60;38.58;101467.80;1666357;84;22358;-91
2022/07/21 10:39:17;;;;;;;4.17;3.77;;;;;;;32.78;38.25;101464.05;1690329;83;21086;-90
2022/07/21 10:41:54;;;;;;;10.43;4.30;;;;;;;32.98;38.05;101459.27;1670405;85;22138;-91
2022/07/21 10:44:35;;;;;;;6.47;4.28;;;;;;;33.16;37.60;101460.09;1669308;84;21092;-91
2022/07/21 10:47:19;;;;;;;5.35;3.65;;;;;;;33.27;37.09;101463.94;1668232;85;21083;-92
2022/07/21 10:50:00;;;;;;;6.08;4.60;;;;;;;33.38;36.98;101456.48;1669080;85;22637;-91
2022/07/21 10:52:45;;;;;;;6.75;3.72;;;;;;;33.52;36.89;101455.63;1664638;84;21448;-91
2022/07/21 10:55:24;;;;;;;4.45;3.95;;;;;;;33.62;36.51;101445.06;1668134;85;21107;-91
2022/07/21 10:57:49;;;;;;;8.25;5.65;;;;;;;33.64;36.19;101435.83;1668351;85;21096;-90
2022/07/21 11:00:20;;;;;;;13.10;11.48;;;;;;;33.68;36.03;101437.88;1660911;84;21122;-91
2022/07/21 11:02:50;;;;;;;8.35;4.50;;;;;;;33.67;35.89;101434.28;1669856;84;21768;-90
2022/07/21 11:05:20;;;;;;;8.93;6.47;;;;;;;33.68;35.86;101435.16;1669038;85;22292;-91
2022/07/21 11:08:14;;;;;;;6.37;4.62;;;;;;;33.70;35.82;101440.03;1671415;85;21119;-91
2022/07/21 11:10:50;;;;;;;8.85;3.95;;;;;;;33.72;35.69;101429.89;1669159;84;21273;-91
2022/07/21 11:13:20;;;;;;;7.53;3.92;;;;;;;33.75;35.41;101426.08;1650679;85;21804;-90
2022/07/21 11:16:01;;;;;;;7.58;5.00;;;;;;;33.79;35.32;101423.58;1650119;85;21795;-91
2022/07/21 11:18:32;;;;;;;5.20;3.87;;;;;;;33.83;35.19;101423.77;1653329;85;21702;-91
2022/07/21 11:21:15;;;;;;;10.32;4.58;;;;;;;33.88;34.97;101417.50;1668737;85;21094;-91
2022/07/21 11:23:48;;;;;;;5.40;3.33;;;;;;;33.93;35.02;101420.84;1646136;85;21744;-91
2022/07/21 11:26:18;;;;;;;7.03;3.62;;;;;;;33.96;34.88;101421.15;1650456;85;21106;-90
2022/07/21 11:28:48;;;;;;;4.65;3.87;;;;;;;34.05;34.61;101421.91;1629913;87;21785;-92
2022/07/21 11:31:20;;;;;;;5.85;3.92;;;;;;;34.13;34.18;101429.64;1564418;87;21164;-90
2022/07/21 11:33:47;;;;;;;5.62;3.62;;;;;;;34.22;34.09;101416.80;1619784;87;21533;-92